createdAt,value
2016-12-30T00:00:07.164Z,48.7
2016-12-30T00:10:07.154Z,48.7
2016-12-30T00:20:07.130Z,48.7
2016-12-30T00:30:07.186Z,48.7
2016-12-30T00:40:07.131Z,48.7
2016-12-30T00:50:03.390Z,48.7
2016-12-30T01:00:14.858Z,48.2
2016-12-30T01:10:17.163Z,47.6
2016-12-30T01:20:17.133Z,48.2
2016-12-30T01:30:07.132Z,47.6
2016-12-30T01:40:07.163Z,48.2
2016-12-30T01:50:07.157Z,48.7
2016-12-30T02:00:07.165Z,48.7
2016-12-30T02:10:07.162Z,48.2
2016-12-30T02:20:07.132Z,48.2
2016-12-30T02:30:07.137Z,47.6
2016-12-30T02:40:07.161Z,48.7
2016-12-30T02:50:07.202Z,47.6
2016-12-30T03:00:07.162Z,47.6
2016-12-30T03:10:07.129Z,47.6
2016-12-30T03:20:07.162Z,48.7
2016-12-30T03:30:07.129Z,47.6
2016-12-30T03:40:07.167Z,47.6
2016-12-30T03:50:05.507Z,47.6
2016-12-30T04:00:17.192Z,47.6
2016-12-30T04:10:07.160Z,47.6
2016-12-30T04:20:07.125Z,47.1
2016-12-30T04:30:07.116Z,47.6
2016-12-30T04:40:07.160Z,47.6
2016-12-30T04:50:07.161Z,47.6
2016-12-30T05:00:07.161Z,47.6
2016-12-30T05:10:07.131Z,47.6
2016-12-30T05:20:07.126Z,47.1
2016-12-30T05:30:07.152Z,47.1
2016-12-30T05:40:07.165Z,47.1
2016-12-30T05:50:07.125Z,47.1
2016-12-30T06:00:07.152Z,47.1
2016-12-30T06:10:02.131Z,47.6
2016-12-30T06:20:14.397Z,47.1
2016-12-30T06:30:17.157Z,46.5
2016-12-30T06:40:17.155Z,47.6
2016-12-30T06:50:07.166Z,47.1
2016-12-30T07:00:07.166Z,47.1
2016-12-30T07:10:07.198Z,47.1
2016-12-30T07:20:07.195Z,47.1
2016-12-30T07:30:02.903Z,47.1
2016-12-30T07:40:15.183Z,47.1
2016-12-30T07:50:17.193Z,46.5
2016-12-30T08:00:17.125Z,46.5
2016-12-30T08:10:07.132Z,46.5
2016-12-30T08:20:07.133Z,46.5
2016-12-30T08:30:07.131Z,47.1
2016-12-30T08:40:07.123Z,46.5
2016-12-30T08:50:07.127Z,47.1
2016-12-30T09:00:07.194Z,46.5
2016-12-30T09:10:07.153Z,46.5
2016-12-30T09:20:07.122Z,47.1
2016-12-30T09:30:07.165Z,47.1
2016-12-30T09:40:07.137Z,47.1
2016-12-30T09:50:07.156Z,47.1
2016-12-30T10:00:07.132Z,47.1
2016-12-30T10:10:06.383Z,47.1
2016-12-30T10:20:15.296Z,47.1
2016-12-30T10:30:17.167Z,47.6
2016-12-30T10:40:17.136Z,47.6
2016-12-30T10:50:07.132Z,48.2
2016-12-30T11:00:07.132Z,47.6
2016-12-30T11:10:07.131Z,48.7
2016-12-30T11:20:07.163Z,47.6
2016-12-30T11:30:06.853Z,48.7
2016-12-30T11:40:15.405Z,49.2
2016-12-30T11:50:17.195Z,48.7
2016-12-30T12:00:17.128Z,48.7
2016-12-30T12:10:07.127Z,48.7
2016-12-30T12:20:07.156Z,48.7
2016-12-30T12:30:07.170Z,49.2
2016-12-30T12:40:07.132Z,49.2
2016-12-30T12:50:07.159Z,49.2
2016-12-30T13:00:07.162Z,49.2
2016-12-30T13:10:07.127Z,49.8
2016-12-30T13:20:07.127Z,48.7
2016-12-30T13:30:07.156Z,49.2
2016-12-30T13:40:07.163Z,49.2
2016-12-30T13:50:07.126Z,48.7
2016-12-30T14:00:07.147Z,49.2
2016-12-30T14:10:07.123Z,49.2
2016-12-30T14:20:07.126Z,48.7
2016-12-30T14:30:07.167Z,49.2
2016-12-30T14:40:07.132Z,49.2
2016-12-30T14:50:07.132Z,49.8
2016-12-30T15:00:07.151Z,49.2
2016-12-30T15:10:07.127Z,49.2
2016-12-30T15:20:07.131Z,50.3
2016-12-30T15:30:07.172Z,49.2
2016-12-30T15:40:07.154Z,49.2
2016-12-30T15:50:07.153Z,49.8
2016-12-30T16:00:07.132Z,49.2
2016-12-30T16:10:07.153Z,48.7
2016-12-30T16:20:07.164Z,49.8
2016-12-30T16:30:07.131Z,49.8
2016-12-30T16:40:04.207Z,49.8
2016-12-30T16:50:15.900Z,49.2
2016-12-30T17:00:07.155Z,49.8
2016-12-30T17:10:07.161Z,49.2
2016-12-30T17:20:07.153Z,49.2
2016-12-30T17:30:07.166Z,49.2
2016-12-30T17:40:07.169Z,49.2
2016-12-30T17:50:07.191Z,48.7
2016-12-30T18:00:07.133Z,49.2
2016-12-30T18:10:07.173Z,48.7
2016-12-30T18:20:07.169Z,48.7
2016-12-30T18:30:07.207Z,49.2
2016-12-30T18:40:07.160Z,48.7
2016-12-30T18:50:07.165Z,48.7
2016-12-30T19:00:07.193Z,48.7
2016-12-30T19:10:07.168Z,48.7
2016-12-30T19:20:04.986Z,48.7
2016-12-30T19:30:16.451Z,48.7
2016-12-30T19:40:17.162Z,48.7
2016-12-30T19:50:15.860Z,48.7
2016-12-30T20:00:17.162Z,48.7
2016-12-30T20:10:17.156Z,48.7
2016-12-30T20:20:17.163Z,48.7
2016-12-30T20:30:15.835Z,48.7
2016-12-30T20:40:07.235Z,48.7
2016-12-30T20:50:07.167Z,48.7
2016-12-30T21:00:07.140Z,48.7
2016-12-30T21:10:07.161Z,48.2
2016-12-30T21:20:07.157Z,48.7
2016-12-30T21:30:07.153Z,48.7
2016-12-30T21:40:07.127Z,48.2
2016-12-30T21:50:07.147Z,48.7
2016-12-30T22:00:07.129Z,48.7
2016-12-30T22:10:07.134Z,48.2
2016-12-30T22:20:07.167Z,48.7
2016-12-30T22:30:07.151Z,48.7
2016-12-30T22:40:07.161Z,48.2
2016-12-30T22:50:07.132Z,48.2
2016-12-30T23:00:07.193Z,48.7
2016-12-30T23:10:07.158Z,48.7
2016-12-30T23:20:01.147Z,48.2
2016-12-30T23:30:20.631Z,48.2
2016-12-30T23:40:07.119Z,47.6
2016-12-30T23:50:07.164Z,48.2
